Time;durP1;ratioP1;P1;durP2;ratioP2;P2;SDS_P1;SDS_P2;PMS_P1;PMS_P2;Temp;Humidity;BMP_temperature;BMP_pressure;BME280_temperature;BME280_humidity;BME280_pressure;Samples;Min_cycle;Max_cycle;Signal;HPM_P1;HPM_P2
2023/08/08 00:01:25;;;;;;;5.70;5.22;;;;;;;12.81;100.00;100883.66;6174026;23;20020;-73
2023/08/08 00:03:51;;;;;;;5.60;5.20;;;;;;;12.75;100.00;100877.00;6195272;23;20256;-73
2023/08/08 00:06:18;;;;;;;5.45;5.15;;;;;;;12.65;100.00;100867.91;6185595;23;20036;-73
2023/08/08 00:08:44;;;;;;;4.95;4.68;;;;;;;12.21;100.00;100795.88;6199703;23;20012;-73
2023/08/08 00:11:10;;;;;;;5.35;5.05;;;;;;;12.54;100.00;100868.53;6153016;23;20025;-74
2023/08/08 00:13:37;;;;;;;6.97;5.10;;;;;;;12.25;100.00;100831.59;6196611;23;20032;-73
2023/08/08 00:16:04;;;;;;;5.70;5.30;;;;;;;12.32;100.00;100851.34;6185473;23;21431;-74
2023/08/08 00:18:31;;;;;;;5.40;5.10;;;;;;;11.66;100.00;100746.34;6199278;23;20202;-73
2023/08/08 00:20:57;;;;;;;5.95;5.45;;;;;;;12.70;100.00;100921.16;6197703;23;20028;-73
2023/08/08 00:23:24;;;;;;;5.18;4.88;;;;;;;12.53;100.00;100895.81;6200698;23;20590;-74
2023/08/08 00:25:51;;;;;;;5.43;5.13;;;;;;;12.30;100.00;100855.00;6174246;23;20075;-73
2023/08/08 00:28:17;;;;;;;5.20;4.90;;;;;;;12.63;100.00;100911.91;6160194;23;20166;-74
2023/08/08 00:30:44;;;;;;;5.40;5.10;;;;;;;12.28;100.00;100873.50;6198260;23;20016;-73
2023/08/08 00:33:11;;;;;;;5.53;5.10;;;;;;;12.57;100.00;100913.97;6170648;23;20032;-73
2023/08/08 00:35:37;;;;;;;5.45;4.95;;;;;;;12.55;100.00;100912.38;6199317;23;20092;-73
2023/08/08 00:38:04;;;;;;;5.40;5.10;;;;;;;12.03;100.00;100842.47;6173471;23;20052;-72
2023/08/08 00:40:30;;;;;;;5.30;5.00;;;;;;;12.28;100.00;100885.81;6205191;23;20028;-74
2023/08/08 00:42:56;;;;;;;5.90;5.50;;;;;;;12.15;100.00;100875.16;6151072;23;20016;-73
2023/08/08 00:45:23;;;;;;;5.53;5.20;;;;;;;12.16;100.00;100875.03;6179821;23;20024;-74
2023/08/08 00:47:50;;;;;;;5.78;5.38;;;;;;;12.38;100.00;100906.25;6168818;23;20016;-73
2023/08/08 00:50:17;;;;;;;5.85;5.10;;;;;;;12.42;100.00;100903.47;6202929;23;20052;-73
2023/08/08 00:52:44;;;;;;;5.38;5.07;;;;;;;12.37;100.00;100923.00;6201807;22;20100;-75
2023/08/08 00:55:11;;;;;;;5.95;5.35;;;;;;;11.70;100.00;100813.59;6204816;23;20107;-74
2023/08/08 00:57:38;;;;;;;5.40;5.10;;;;;;;11.53;100.00;100786.47;6201286;22;20950;-77
2023/08/08 01:00:06;;;;;;;5.03;4.75;;;;;;;12.12;100.00;100891.09;6203180;23;20027;-73
2023/08/08 01:02:33;;;;;;;5.03;4.72;;;;;;;11.45;100.00;100783.41;6204723;23;20562;-74
2023/08/08 01:05:00;;;;;;;5.57;5.20;;;;;;;12.30;100.00;100921.63;6147987;23;20051;-75
2023/08/08 01:07:29;;;;;;;5.00;4.70;;;;;;;12.31;100.00;100928.59;6182522;23;20748;-74
2023/08/08 01:10:04;;;;;;;5.55;5.25;;;;;;;12.36;100.00;100929.19;6172121;23;20075;-72
2023/08/08 01:12:31;;;;;;;5.68;5.22;;;;;;;11.92;100.00;100858.84;6201683;22;20004;-72
2023/08/08 01:14:58;;;;;;;5.57;5.18;;;;;;;12.38;100.00;100929.94;6177035;23;20141;-73
2023/08/08 01:17:25;;;;;;;6.40;5.85;;;;;;;11.79;100.00;100834.13;6174247;23;20024;-73
2023/08/08 01:19:52;;;;;;;5.45;4.95;;;;;;;12.49;100.00;100931.16;6199683;23;20031;-72
2023/08/08 01:22:27;;;;;;;5.43;5.13;;;;;;;11.87;100.00;100829.28;6176718;23;20008;-74
2023/08/08 01:24:54;;;;;;;5.60;5.15;;;;;;;12.24;100.00;100887.75;6201259;23;20073;-73
2023/08/08 01:27:21;;;;;;;5.15;4.85;;;;;;;12.46;100.00;100923.41;6182595;23;20025;-72
2023/08/08 01:29:48;;;;;;;5.40;5.00;;;;;;;11.97;100.00;100854.19;6202817;23;20570;-74
2023/08/08 01:32:14;;;;;;;5.80;5.40;;;;;;;11.43;100.00;100781.81;6177794;23;20034;-73
2023/08/08 01:34:41;;;;;;;6.18;5.68;;;;;;;12.27;100.00;100910.44;6177440;23;20046;-74
2023/08/08 01:37:17;;;;;;;5.70;5.30;;;;;;;12.29;100.00;100922.56;6186733;23;20060;-74
2023/08/08 01:39:46;;;;;;;5.60;5.22;;;;;;;11.93;100.00;100878.13;6200694;23;21174;-74
2023/08/08 01:42:14;;;;;;;5.60;5.30;;;;;;;12.03;100.00;100895.09;6183636;23;20030;-74
2023/08/08 01:44:41;;;;;;;5.50;5.03;;;;;;;12.24;100.00;100915.88;6176378;23;20471;-74
2023/08/08 01:47:08;;;;;;;7.07;5.43;;;;;;;12.26;100.00;100912.22;6169426;23;20455;-73
2023/08/08 01:49:35;;;;;;;5.20;4.90;;;;;;;12.24;100.00;100915.88;6200208;23;20027;-74
2023/08/08 01:52:01;;;;;;;5.32;5.03;;;;;;;11.59;100.00;100827.34;6182326;23;20048;-73
2023/08/08 01:54:28;;;;;;;5.22;4.82;;;;;;;11.96;100.00;100893.72;6176505;23;20048;-74
2023/08/08 01:56:54;;;;;;;6.15;5.65;;;;;;;11.40;100.00;100795.94;6176383;23;20091;-74
2023/08/08 01:59:21;;;;;;;5.88;5.47;;;;;;;11.48;100.00;100800.78;6206995;23;20409;-73
2023/08/08 02:01:47;;;;;;;5.47;5.07;;;;;;;12.10;100.00;100914.84;6205258;23;21031;-74
2023/08/08 02:04:14;;;;;;;5.80;5.40;;;;;;;11.75;100.00;100867.63;6204981;23;20086;-74
2023/08/08 02:06:40;;;;;;;5.13;4.82;;;;;;;12.12;100.00;100912.13;6149037;23;20028;-74
2023/08/08 02:09:07;;;;;;;5.20;4.90;;;;;;;11.78;100.00;100870.06;6170478;23;20630;-74
2023/08/08 02:11:33;;;;;;;5.72;5.22;;;;;;;12.18;100.00;100923.16;6201374;23;20028;-74
2023/08/08 02:14:00;;;;;;;5.57;5.18;;;;;;;11.75;100.00;100851.00;6198960;23;20786;-74
2023/08/08 02:16:26;;;;;;;5.40;5.10;;;;;;;12.10;100.00;100914.00;6180031;23;20091;-74
2023/08/08 02:18:53;;;;;;;6.47;5.03;;;;;;;11.80;100.00;100854.22;6159119;23;20026;-74
2023/08/08 02:21:19;;;;;;;6.47;6.07;;;;;;;12.21;100.00;100903.75;6181900;23;20028;-73
2023/08/08 02:23:45;;;;;;;5.68;5.32;;;;;;;11.56;100.00;100788.06;6199716;23;20418;-73
2023/08/08 02:26:12;;;;;;;5.90;5.50;;;;;;;12.14;100.00;100855.00;6176782;23;20031;-74
2023/08/08 02:28:38;;;;;;;5.32;4.93;;;;;;;11.88;100.00;100812.56;6202401;23;20029;-73
2023/08/08 02:31:05;;;;;;;5.90;5.50;;;;;;;11.73;100.00;100793.25;6200550;23;20028;-73
2023/08/08 02:33:31;;;;;;;4.97;4.68;;;;;;;11.96;100.00;100822.69;6168912;23;20008;-74
2023/08/08 02:35:58;;;;;;;5.57;5.28;;;;;;;11.92;100.00;100821.16;6176334;23;20095;-73
2023/08/08 02:38:24;;;;;;;6.13;5.57;;;;;;;12.11;100.00;100857.84;6144595;23;20088;-74
2023/08/08 02:40:50;;;;;;;5.25;4.95;;;;;;;11.94;100.00;100835.94;6199532;23;20044;-73
2023/08/08 02:43:17;;;;;;;5.55;5.00;;;;;;;12.30;100.00;100892.69;6203613;23;20035;-75
2023/08/08 02:45:43;;;;;;;5.45;5.15;;;;;;;10.96;100.00;100673.97;6199371;23;20028;-74
2023/08/08 02:48:10;;;;;;;7.50;5.13;;;;;;;11.49;100.00;100758.66;6170541;23;20498;-76
2023/08/08 02:50:36;;;;;;;5.32;5.03;;;;;;;11.74;100.00;100794.09;6171721;23;20652;-74
2023/08/08 02:53:03;;;;;;;5.22;4.93;;;;;;;11.93;100.00;100828.16;6174093;23;20012;-73
2023/08/08 02:55:29;;;;;;;5.85;5.30;;;;;;;11.63;100.00;100792.06;6197652;23;20099;-73
2023/08/08 02:57:56;;;;;;;6.38;4.95;;;;;;;11.84;100.00;100825.97;6198020;23;20039;-72
2023/08/08 03:00:22;;;;;;;6.60;5.00;;;;;;;12.12;100.00;100891.09;6200275;23;20586;-74
2023/08/08 03:02:49;;;;;;;4.97;4.70;;;;;;;12.10;100.00;100877.16;6172387;23;20016;-74
2023/08/08 03:05:15;;;;;;;5.18;4.88;;;;;;;11.85;100.00;100849.56;6173059;23;20020;-72
2023/08/08 03:07:42;;;;;;;5.28;4.97;;;;;;;11.99;100.00;100867.25;6201021;23;20079;-73
2023/08/08 03:10:09;;;;;;;6.03;5.32;;;;;;;11.61;100.00;100800.97;6197406;23;20047;-73
2023/08/08 03:12:37;;;;;;;5.47;5.15;;;;;;;11.25;100.00;100734.56;6154907;23;20081;-75
2023/08/08 03:15:04;;;;;;;6.25;5.05;;;;;;;11.60;100.00;100810.63;6172672;23;20044;-73
2023/08/08 03:17:31;;;;;;;5.40;5.00;;;;;;;11.95;100.00;100868.34;6183010;23;20047;-74
2023/08/08 03:19:57;;;;;;;5.10;4.70;;;;;;;11.89;100.00;100859.03;6197409;23;20492;-74
2023/08/08 03:22:24;;;;;;;7.72;5.75;;;;;;;11.05;100.00;100713.78;6175076;23;20704;-73
2023/08/08 03:24:50;;;;;;;5.43;5.13;;;;;;;11.57;100.00;100806.38;6181911;23;20012;-73
2023/08/08 03:27:17;;;;;;;5.78;5.22;;;;;;;11.01;100.00;100728.84;6178769;23;20066;-73
2023/08/08 03:29:43;;;;;;;5.53;5.10;;;;;;;11.56;100.00;100820.44;6202455;23;20158;-73
2023/08/08 03:32:09;;;;;;;6.10;5.60;;;;;;;11.85;100.00;100867.97;6192738;23;20477;-75
2023/08/08 03:34:36;;;;;;;9.43;5.15;;;;;;;11.99;100.00;100890.94;6197224;23;20028;-73
2023/08/08 03:37:03;;;;;;;6.35;5.43;;;;;;;11.58;100.00;100828.25;6172673;23;20036;-74
2023/08/08 03:39:29;;;;;;;5.00;4.72;;;;;;;11.04;100.00;100731.31;6202199;23;20081;-74
2023/08/08 03:41:55;;;;;;;5.60;5.20;;;;;;;9.97;100.00;100556.75;6198955;23;20088;-73
2023/08/08 03:44:23;;;;;;;5.70;5.25;;;;;;;11.47;100.00;100813.06;6183031;23;20030;-73
2023/08/08 03:46:49;;;;;;;5.60;5.20;;;;;;;11.61;100.00;100837.78;6196304;23;20091;-73
2023/08/08 03:49:17;;;;;;;5.90;5.40;;;;;;;9.80;100.00;100596.91;6194649;23;20600;-73
2023/08/08 03:51:45;;;;;;;5.93;4.97;;;;;;;11.37;100.00;100812.72;6194611;23;20019;-74
2023/08/08 03:54:11;;;;;;;5.13;4.82;;;;;;;10.91;100.00;100732.91;6170221;23;20051;-74
2023/08/08 03:56:37;;;;;;;5.53;5.07;;;;;;;11.52;100.00;100853.09;6200984;23;20024;-75
2023/08/08 03:59:04;;;;;;;5.13;4.75;;;;;;;11.69;100.00;100870.59;6172338;23;20015;-75
2023/08/08 04:01:30;;;;;;;6.40;5.10;;;;;;;11.89;100.00;100911.63;6173158;23;20567;-74
2023/08/08 04:03:57;;;;;;;5.38;5.00;;;;;;;11.57;100.00;100869.47;6200937;23;20098;-74
2023/08/08 04:06:24;;;;;;;5.70;5.30;;;;;;;11.77;100.00;100894.69;6194252;23;20038;-74
2023/08/08 04:08:50;;;;;;;5.47;5.07;;;;;;;11.04;100.00;100759.34;6168790;23;20024;-74
2023/08/08 04:11:16;;;;;;;5.63;5.22;;;;;;;11.96;100.00;100901.59;6172216;23;20701;-74
2023/08/08 04:13:43;;;;;;;5.63;5.32;;;;;;;12.08;100.00;100921.13;6188311;23;20597;-74
2023/08/08 04:16:09;;;;;;;5.63;5.20;;;;;;;11.60;100.00;100849.22;6199101;23;20035;-76
2023/08/08 04:18:36;;;;;;;5.30;5.00;;;;;;;11.45;100.00;100833.34;6145880;23;20020;-72
2023/08/08 04:21:02;;;;;;;5.25;4.93;;;;;;;11.63;100.00;100865.66;6178255;23;20040;-72
2023/08/08 04:23:28;;;;;;;5.47;5.10;;;;;;;11.05;100.00;100751.41;6195613;23;20037;-73
2023/08/08 04:25:55;;;;;;;5.03;4.75;;;;;;;10.89;100.00;100700.63;6203267;23;20032;-73
2023/08/08 04:28:21;;;;;;;5.20;4.70;;;;;;;11.97;100.00;100887.53;6175346;23;20016;-73
2023/08/08 04:30:48;;;;;;;9.50;5.32;;;;;;;11.51;100.00;100821.66;6205270;23;20018;-73
2023/08/08 04:33:15;;;;;;;6.68;4.90;;;;;;;11.91;100.00;100872.09;6204028;23;20095;-73
2023/08/08 04:35:41;;;;;;;5.82;5.40;;;;;;;12.13;100.00;100917.31;6201121;23;20028;-73
2023/08/08 04:38:08;;;;;;;5.43;5.10;;;;;;;11.53;100.00;100835.56;6168354;23;20034;-73
2023/08/08 04:40:35;;;;;;;6.43;5.82;;;;;;;11.61;100.00;100841.25;6199769;23;20076;-73
2023/08/08 04:43:06;;;;;;;10.70;5.70;;;;;;;12.14;100.00;100910.25;6173834;23;20138;-73
2023/08/08 04:45:33;;;;;;;6.15;5.65;;;;;;;11.57;100.00;100816.06;6199655;23;20376;-72
2023/08/08 04:48:02;;;;;;;5.60;5.10;;;;;;;11.94;100.00;100867.47;6172909;23;20353;-72
2023/08/08 04:50:28;;;;;;;6.22;5.72;;;;;;;11.74;100.00;100809.88;6176302;23;20703;-73
2023/08/08 04:52:55;;;;;;;9.65;6.00;;;;;;;12.23;100.00;100887.84;6172859;23;20026;-74
2023/08/08 04:55:21;;;;;;;6.47;5.35;;;;;;;12.46;100.00;100910.25;6205845;23;20099;-73
2023/08/08 04:57:48;;;;;;;5.45;5.05;;;;;;;12.38;100.00;100885.19;6175518;23;20585;-72
2023/08/08 05:00:14;;;;;;;6.18;5.63;;;;;;;12.38;100.00;100856.25;6204662;23;20035;-72
2023/08/08 05:02:41;;;;;;;6.20;5.70;;;;;;;12.92;100.00;100907.59;6184397;23;20020;-72
2023/08/08 05:05:09;;;;;;;5.32;5.00;;;;;;;12.98;100.00;100876.47;6202600;22;20613;-74
2023/08/08 05:07:37;;;;;;;6.10;5.53;;;;;;;13.50;100.00;100901.50;6152775;23;20556;-73
2023/08/08 05:10:04;;;;;;;5.88;5.43;;;;;;;13.43;100.00;100865.06;6175230;23;20027;-72
2023/08/08 05:12:31;;;;;;;6.18;5.70;;;;;;;12.53;100.00;100686.06;6205439;23;20075;-73
2023/08/08 05:14:57;;;;;;;6.15;5.55;;;;;;;13.58;100.00;100850.94;6203209;23;20073;-72
2023/08/08 05:17:24;;;;;;;5.93;5.60;;;;;;;12.46;100.00;100668.09;6203413;23;20020;-73
2023/08/08 05:19:50;;;;;;;15.65;14.75;;;;;;;13.55;100.00;100844.06;6088509;23;20737;-72
2023/08/08 05:22:17;;;;;;;6.60;5.82;;;;;;;13.25;100.00;100790.56;6164538;23;20003;-74
2023/08/08 05:24:43;;;;;;;8.65;6.03;;;;;;;13.62;100.00;100848.94;6196932;23;20348;-73
2023/08/08 05:27:11;;;;;;;6.35;5.75;;;;;;;13.66;100.00;100856.56;6201853;22;20413;-72
2023/08/08 05:29:38;;;;;;;5.55;5.25;;;;;;;13.51;100.00;100813.56;6170341;23;20029;-72
2023/08/08 05:32:06;;;;;;;7.13;5.38;;;;;;;13.74;100.00;100840.28;6199673;23;20083;-72
2023/08/08 05:34:33;;;;;;;6.90;5.70;;;;;;;13.33;100.00;100738.25;6202469;23;20081;-71
2023/08/08 05:37:00;;;;;;;9.50;5.60;;;;;;;13.55;100.00;100769.38;6202249;23;20108;-72
2023/08/08 05:39:41;;;;;;;5.75;5.35;;;;;;;13.90;100.00;100811.97;6205912;23;20623;-71
2023/08/08 05:42:08;;;;;;;5.75;5.32;;;;;;;13.74;100.00;100737.41;6200627;23;20524;-72
2023/08/08 05:44:34;;;;;;;5.85;5.32;;;;;;;14.05;100.00;100772.31;6202113;23;20054;-72
2023/08/08 05:47:01;;;;;;;5.82;5.35;;;;;;;13.45;100.00;100663.69;6201560;23;20048;-73
2023/08/08 05:49:27;;;;;;;11.15;5.88;;;;;;;14.26;100.00;100789.41;6170624;23;20140;-73
2023/08/08 05:51:54;;;;;;;5.70;5.30;;;;;;;14.45;100.00;100819.84;6184950;23;20080;-73
2023/08/08 05:54:20;;;;;;;6.03;5.40;;;;;;;13.98;100.00;100744.66;6201615;23;20023;-72
2023/08/08 05:56:46;;;;;;;6.38;5.65;;;;;;;13.93;100.00;100751.09;6175565;23;20072;-73
2023/08/08 05:59:13;;;;;;;8.23;5.80;;;;;;;13.85;100.00;100732.28;6172727;23;20023;-73
2023/08/08 06:01:39;;;;;;;6.25;5.75;;;;;;;14.11;100.00;100766.63;6176609;23;20696;-73
2023/08/08 06:04:06;;;;;;;6.78;5.90;;;;;;;14.20;100.00;100768.69;6204134;23;20730;-73
2023/08/08 06:06:32;;;;;;;5.93;5.43;;;;;;;14.56;100.00;100823.50;6157817;23;20028;-72
2023/08/08 06:08:59;;;;;;;10.32;6.00;;;;;;;14.34;100.00;100781.81;6200569;23;20044;-73
2023/08/08 06:11:25;;;;;;;8.35;5.68;;;;;;;14.50;100.00;100770.22;6180492;23;20091;-73
2023/08/08 06:13:52;;;;;;;6.60;5.60;;;;;;;14.20;100.00;100710.63;6200014;23;20031;-74
2023/08/08 06:16:18;;;;;;;5.85;5.35;;;;;;;14.62;100.00;100768.59;6177082;23;20111;-72
2023/08/08 06:18:45;;;;;;;5.60;5.30;;;;;;;14.76;100.00;100782.53;6174231;23;20012;-72
2023/08/08 06:21:11;;;;;;;5.70;5.28;;;;;;;14.29;100.00;100699.44;6198309;23;20091;-73
2023/08/08 06:23:38;;;;;;;5.35;5.05;;;;;;;14.77;100.00;100780.72;6201240;23;20020;-73
2023/08/08 06:26:05;;;;;;;5.90;5.30;;;;;;;14.42;100.00;100720.56;6195236;23;20065;-73
2023/08/08 06:28:31;;;;;;;5.97;5.47;;;;;;;14.03;100.00;100658.97;6200370;23;20468;-73
2023/08/08 06:30:58;;;;;;;8.23;5.45;;;;;;;14.90;100.00;100793.97;6202515;23;20533;-73
2023/08/08 06:33:25;;;;;;;6.63;5.63;;;;;;;14.82;100.00;100783.91;6197170;23;20118;-73
2023/08/08 06:35:51;;;;;;;5.93;5.45;;;;;;;14.38;100.00;100710.34;6146929;23;20022;-73
2023/08/08 06:38:17;;;;;;;5.25;4.95;;;;;;;14.41;100.00;100725.94;6176767;23;20481;-72
2023/08/08 06:40:44;;;;;;;5.65;5.35;;;;;;;15.05;100.00;100800.81;6199441;23;20066;-73
2023/08/08 06:43:10;;;;;;;6.35;5.53;;;;;;;14.49;100.00;100690.16;6173972;23;20097;-73
2023/08/08 06:45:38;;;;;;;6.18;5.78;;;;;;;15.27;100.00;100794.88;6172357;23;20043;-72
2023/08/08 06:48:05;;;;;;;6.05;5.55;;;;;;;14.66;100.00;100675.81;6169588;23;20023;-73
2023/08/08 06:50:31;;;;;;;5.68;5.25;;;;;;;14.38;99.31;100599.44;6171269;23;20434;-73
2023/08/08 06:52:58;;;;;;;5.85;5.45;;;;;;;15.30;98.07;100718.00;6196392;23;20075;-72
2023/08/08 06:55:24;;;;;;;5.95;5.55;;;;;;;14.66;96.94;100593.94;6199053;23;20027;-73
2023/08/08 06:57:50;;;;;;;6.00;5.55;;;;;;;15.22;95.51;100645.47;6201115;23;20004;-72
2023/08/08 07:00:17;;;;;;;6.20;5.70;;;;;;;15.39;94.39;100658.28;6202681;23;20024;-73
2023/08/08 07:02:43;;;;;;;5.93;5.57;;;;;;;15.20;94.90;100624.44;6201748;23;20008;-72
2023/08/08 07:05:10;;;;;;;6.28;5.78;;;;;;;15.00;94.57;100588.03;6201374;23;20044;-72
2023/08/08 07:07:36;;;;;;;5.90;5.50;;;;;;;15.56;93.96;100662.38;6202168;23;20401;-72
2023/08/08 07:10:07;;;;;;;5.95;5.45;;;;;;;15.41;93.81;100634.38;6174607;23;20484;-73
2023/08/08 07:12:33;;;;;;;6.38;5.97;;;;;;;15.51;93.47;100644.16;6203306;23;20016;-72
2023/08/08 07:15:00;;;;;;;6.20;5.72;;;;;;;15.30;93.07;100603.47;6198389;23;20027;-75
2023/08/08 07:17:26;;;;;;;6.22;5.72;;;;;;;15.58;93.43;100638.44;6172149;23;20028;-72
2023/08/08 07:19:53;;;;;;;8.18;5.57;;;;;;;14.48;93.24;100464.03;6201981;23;20118;-72
2023/08/08 07:22:20;;;;;;;8.77;5.88;;;;;;;15.37;92.66;100588.81;6196807;23;20108;-73
2023/08/08 07:24:46;;;;;;;6.60;6.07;;;;;;;15.97;92.01;100661.09;6174375;23;20040;-72
2023/08/08 07:27:13;;;;;;;6.85;6.18;;;;;;;16.14;89.85;100610.38;6181689;23;20047;-73
2023/08/08 07:29:39;;;;;;;6.22;5.72;;;;;;;17.03;87.85;100670.63;6197608;23;20025;-72
2023/08/08 07:32:06;;;;;;;6.15;5.78;;;;;;;17.07;84.67;100576.59;6173795;23;22249;-72
2023/08/08 07:34:32;;;;;;;6.40;5.90;;;;;;;16.79;82.19;100472.78;6201137;23;20505;-72
2023/08/08 07:36:59;;;;;;;6.10;5.70;;;;;;;17.44;81.84;100574.44;6197708;23;20020;-72
2023/08/08 07:39:26;;;;;;;7.15;6.40;;;;;;;17.22;81.99;100540.00;6200381;23;20704;-73
2023/08/08 07:41:53;;;;;;;6.80;6.15;;;;;;;16.91;83.30;100551.34;6198931;23;20008;-72
2023/08/08 07:44:19;;;;;;;5.97;5.57;;;;;;;16.92;83.70;100552.19;6188847;23;20108;-72
2023/08/08 07:46:45;;;;;;;6.90;6.30;;;;;;;17.47;81.72;100568.84;6204172;23;20048;-71
2023/08/08 07:49:13;;;;;;;6.18;5.63;;;;;;;17.40;82.31;100557.09;6202186;23;20436;-72
2023/08/08 07:51:39;;;;;;;5.85;5.45;;;;;;;17.79;80.80;100549.38;6206009;23;20054;-71
2023/08/08 07:54:08;;;;;;;6.53;5.93;;;;;;;17.89;80.20;100528.22;6204705;23;20016;-71
2023/08/08 07:56:35;;;;;;;11.30;6.00;;;;;;;17.88;78.19;100455.72;6210718;22;20039;-71
2023/08/08 07:59:03;;;;;;;7.63;6.47;;;;;;;17.83;76.00;100390.69;6198510;23;20028;-72
2023/08/08 08:01:30;;;;;;;7.00;6.35;;;;;;;17.96;76.27;100409.06;6176325;23;20055;-72
2023/08/08 08:03:56;;;;;;;6.55;5.95;;;;;;;18.49;76.45;100497.28;6200930;22;20082;-73
2023/08/08 08:06:23;;;;;;;7.03;6.38;;;;;;;18.50;76.31;100474.19;6185088;23;20032;-74
2023/08/08 08:08:49;;;;;;;6.55;5.85;;;;;;;18.57;75.11;100458.56;6202139;23;20481;-71
2023/08/08 08:11:16;;;;;;;6.60;6.10;;;;;;;18.20;75.33;100425.50;6188827;23;20111;-71
2023/08/08 08:13:43;;;;;;;7.20;6.00;;;;;;;18.10;76.50;100462.66;6202335;23;20023;-73
2023/08/08 08:16:09;;;;;;;6.35;5.88;;;;;;;17.70;77.44;100462.56;6186326;23;20024;-74
2023/08/08 08:18:36;;;;;;;6.75;5.80;;;;;;;17.55;78.17;100470.88;6179486;23;20021;-73
2023/08/08 08:21:03;;;;;;;9.38;6.07;;;;;;;17.06;79.14;100429.09;6200463;23;20049;-72
2023/08/08 08:23:31;;;;;;;7.22;6.63;;;;;;;17.70;78.80;100510.34;6204959;23;20028;-75
2023/08/08 08:25:58;;;;;;;6.82;6.10;;;;;;;17.39;77.97;100454.59;6173975;23;20092;-73
2023/08/08 08:28:26;;;;;;;6.88;5.90;;;;;;;17.60;78.51;100509.44;6199154;23;20026;-73
2023/08/08 08:30:53;;;;;;;7.00;6.15;;;;;;;17.41;80.02;100539.34;6197098;23;20098;-74
2023/08/08 08:33:19;;;;;;;6.28;5.75;;;;;;;17.30;80.87;100566.78;6204314;23;20044;-74
2023/08/08 08:35:46;;;;;;;6.40;5.93;;;;;;;16.72;82.93;100527.28;6181031;23;20779;-74
2023/08/08 08:38:13;;;;;;;11.20;6.38;;;;;;;16.30;85.92;100566.81;6175292;23;20027;-72
2023/08/08 08:40:41;;;;;;;6.75;6.25;;;;;;;16.83;88.23;100669.56;6198970;23;20051;-72
2023/08/08 08:43:09;;;;;;;7.75;6.32;;;;;;;16.99;87.43;100680.63;6194021;23;20032;-73
2023/08/08 08:45:41;;;;;;;6.90;6.30;;;;;;;17.17;86.06;100669.53;6202390;23;20425;-72
2023/08/08 08:48:12;;;;;;;7.53;6.63;;;;;;;17.07;86.01;100648.19;6178873;23;20092;-73
2023/08/08 08:50:39;;;;;;;7.15;6.53;;;;;;;16.59;87.15;100624.59;6199824;23;20028;-73
2023/08/08 08:53:06;;;;;;;7.32;6.53;;;;;;;16.07;88.00;100587.97;6183969;23;20087;-72
2023/08/08 08:55:33;;;;;;;7.10;6.10;;;;;;;16.04;90.41;100624.44;6203178;23;20035;-73
2023/08/08 08:58:00;;;;;;;13.25;9.48;;;;;;;15.74;94.02;100674.25;6167290;23;20020;-72
2023/08/08 09:00:27;;;;;;;6.60;6.03;;;;;;;15.94;97.76;100751.31;6198268;23;20844;-73
2023/08/08 09:02:57;;;;;;;7.75;6.30;;;;;;;15.21;100.00;100713.34;6158896;23;20028;-71
2023/08/08 09:05:25;;;;;;;7.28;6.50;;;;;;;15.51;100.00;100818.72;6178925;23;20055;-72
2023/08/08 09:07:52;;;;;;;7.05;6.55;;;;;;;15.51;100.00;100842.53;6161966;23;20080;-73
2023/08/08 09:10:19;;;;;;;9.80;6.45;;;;;;;15.71;100.00;100872.88;6204075;23;20121;-72
2023/08/08 09:12:47;;;;;;;8.98;6.38;;;;;;;15.67;100.00;100884.63;6199579;23;20028;-73
2023/08/08 09:15:13;;;;;;;7.10;6.50;;;;;;;15.51;100.00;100858.41;6200468;23;20096;-73
2023/08/08 09:17:42;;;;;;;7.18;6.57;;;;;;;15.90;100.00;100912.16;6198732;23;20979;-74
2023/08/08 09:20:16;;;;;;;6.63;6.22;;;;;;;15.72;100.00;100842.88;6143846;23;20400;-74
2023/08/08 09:22:43;;;;;;;7.47;6.43;;;;;;;16.33;100.00;100916.16;6147344;23;20020;-73
2023/08/08 09:25:09;;;;;;;6.82;6.25;;;;;;;16.46;100.00;100898.41;6168076;23;20020;-73
2023/08/08 09:27:36;;;;;;;6.72;6.13;;;;;;;16.26;100.00;100825.72;6184757;23;20091;-73
2023/08/08 09:30:03;;;;;;;6.70;6.20;;;;;;;16.34;100.00;100782.78;6195117;23;20038;-72
2023/08/08 09:32:32;;;;;;;7.72;6.97;;;;;;;16.73;100.00;100776.25;6198187;23;20501;-73
2023/08/08 09:34:59;;;;;;;7.47;6.57;;;;;;;17.28;100.00;100833.94;6175363;23;20015;-73
2023/08/08 09:37:28;;;;;;;6.97;6.47;;;;;;;17.52;100.00;100853.25;6199656;23;20092;-72
2023/08/08 09:39:59;;;;;;;14.50;6.90;;;;;;;17.58;100.00;100830.69;6173925;23;20100;-72
2023/08/08 09:42:27;;;;;;;7.60;6.80;;;;;;;17.91;100.00;100843.06;6172702;23;20027;-71
2023/08/08 09:44:55;;;;;;;7.22;6.63;;;;;;;18.13;99.56;100836.88;6193988;23;20047;-72
2023/08/08 09:47:22;;;;;;;7.10;6.60;;;;;;;17.86;96.89;100725.81;6170266;23;20032;-73
2023/08/08 09:49:49;;;;;;;7.63;6.90;;;;;;;17.94;94.19;100702.13;6205896;23;20402;-73
2023/08/08 09:52:16;;;;;;;7.20;6.70;;;;;;;18.78;93.84;100798.75;6183101;23;20097;-72
2023/08/08 09:54:43;;;;;;;7.20;6.50;;;;;;;18.87;88.38;100702.28;6198969;23;20031;-72
2023/08/08 09:57:09;;;;;;;7.18;6.60;;;;;;;18.94;86.08;100647.56;6171634;23;20100;-73
2023/08/08 09:59:37;;;;;;;6.78;6.28;;;;;;;18.92;84.13;100620.25;6195189;23;20485;-74
2023/08/08 10:02:04;;;;;;;7.03;6.53;;;;;;;18.91;85.63;100653.16;6167066;23;20435;-72
2023/08/08 10:04:32;;;;;;;6.93;6.32;;;;;;;18.70;85.80;100622.16;6176785;23;20030;-72
2023/08/08 10:06:59;;;;;;;7.10;6.50;;;;;;;18.28;84.61;100539.03;6155729;23;20056;-73
2023/08/08 10:09:26;;;;;;;7.05;6.35;;;;;;;18.25;86.41;100595.94;6172818;23;20390;-72
2023/08/08 10:11:55;;;;;;;9.23;6.40;;;;;;;18.20;85.79;100608.78;6177763;23;20036;-71
2023/08/08 10:14:29;;;;;;;7.88;6.30;;;;;;;17.94;85.63;100584.41;6198449;23;20039;-72
2023/08/08 10:16:56;;;;;;;6.95;6.35;;;;;;;17.49;88.31;100585.47;6200922;23;20020;-73
2023/08/08 10:19:23;;;;;;;7.07;6.57;;;;;;;17.81;87.12;100623.59;6199380;23;20015;-74
2023/08/08 10:22:05;;;;;;;6.78;6.15;;;;;;;17.79;88.46;100652.91;6171066;23;20047;-73
2023/08/08 10:24:36;;;;;;;7.45;6.80;;;;;;;17.90;88.74;100676.78;6172801;23;20014;-73
2023/08/08 10:27:04;;;;;;;7.30;6.80;;;;;;;17.08;87.65;100547.31;6200892;23;20068;-72
2023/08/08 10:29:32;;;;;;;6.55;6.15;;;;;;;17.71;87.54;100636.78;6194344;23;20584;-73
2023/08/08 10:32:05;;;;;;;6.88;6.47;;;;;;;17.49;88.02;100619.13;6195918;23;20469;-73
2023/08/08 10:34:46;;;;;;;;;;;;;;;17.55;87.85;100632.72;6203079;23;20028;-72
2023/08/08 10:37:15;;;;;;;7.20;6.60;;;;;;;17.08;88.01;100567.69;6198177;23;19928;-72
2023/08/08 10:39:52;;;;;;;7.22;6.53;;;;;;;17.22;88.92;100608.97;6198214;23;20024;-75
2023/08/08 10:42:20;;;;;;;6.90;6.40;;;;;;;17.08;87.96;100565.03;6181294;23;20020;-72
2023/08/08 10:44:55;;;;;;;6.80;6.35;;;;;;;17.85;87.44;100665.69;6196346;23;20054;-72
2023/08/08 10:47:23;;;;;;;7.68;6.88;;;;;;;17.98;86.28;100630.16;6181034;23;20015;-73
2023/08/08 10:50:11;;;;;;;7.15;6.53;;;;;;;18.30;86.13;100657.50;6172454;23;20028;-73
2023/08/08 10:52:52;;;;;;;6.95;6.45;;;;;;;18.22;82.43;100544.88;6164264;23;20071;-73
2023/08/08 10:55:21;;;;;;;6.43;6.03;;;;;;;18.47;81.87;100567.50;6198349;23;20016;-72
2023/08/08 10:58:19;;;;;;;6.78;6.18;;;;;;;18.59;79.94;100529.22;6200384;23;20039;-72
2023/08/08 11:00:48;;;;;;;6.55;6.10;;;;;;;18.54;77.38;100431.28;6093647;23;20043;-71
2023/08/08 11:03:15;;;;;;;8.40;5.80;;;;;;;19.02;75.05;100444.75;6184606;23;20121;-72
2023/08/08 11:05:46;;;;;;;6.72;6.13;;;;;;;18.29;73.25;100259.97;6197853;23;20043;-72
2023/08/08 11:08:12;;;;;;;6.25;5.85;;;;;;;18.77;73.22;100345.13;6156572;23;20024;-73
2023/08/08 11:10:40;;;;;;;6.40;6.00;;;;;;;18.99;74.49;100418.47;6196333;23;20031;-73
2023/08/08 11:13:07;;;;;;;6.63;6.18;;;;;;;18.63;72.66;100307.34;6167323;23;20395;-71
2023/08/08 11:15:36;;;;;;;6.07;5.78;;;;;;;19.16;73.26;100414.22;6172514;23;20029;-74
2023/08/08 11:18:03;;;;;;;6.78;6.30;;;;;;;19.03;71.99;100398.56;6199415;23;20083;-73
2023/08/08 11:20:35;;;;;;;7.25;6.75;;;;;;;18.78;72.02;100352.09;6142765;23;20024;-75